Time;durP1;ratioP1;P1;durP2;ratioP2;P2;SDS_P1;SDS_P2;PMS_P1;PMS_P2;Temp;Humidity;BMP_temperature;BMP_pressure;BME280_temperature;BME280_humidity;BME280_pressure;Samples;Min_cycle;Max_cycle;Signal;HPM_P1;HPM_P2
2021/12/12 00:00:33;;;;;;;9.10;3.08;;;;;;;12.61;85.47;98408.84;5090273;28;20425;-43
2021/12/12 00:03:03;;;;;;;;;;;;;;;12.73;88.17;98422.06;5090654;28;20035;-43
2021/12/12 00:05:36;;;;;;;12.90;4.78;;;;;;;13.15;86.09;98391.25;5089553;28;19920;-43
2021/12/12 00:08:02;;;;;;;11.77;4.35;;;;;;;12.93;85.50;98420.66;5088724;28;20024;-42
2021/12/12 00:10:30;;;;;;;13.75;4.80;;;;;;;12.70;85.38;98426.03;5090035;28;20432;-42
2021/12/12 00:12:58;;;;;;;14.75;6.18;;;;;;;12.82;86.58;98388.53;5089590;28;20490;-43
2021/12/12 00:15:24;;;;;;;16.63;6.20;;;;;;;12.88;85.67;98349.34;5089506;28;20024;-42
2021/12/12 00:17:49;;;;;;;11.43;5.20;;;;;;;12.31;86.92;98362.06;5089104;28;20430;-42
2021/12/12 00:20:18;;;;;;;14.77;5.25;;;;;;;12.07;89.62;98350.84;5093536;28;20042;-40
2021/12/12 00:22:43;;;;;;;12.50;4.72;;;;;;;12.91;87.25;98319.47;5093423;28;20060;-40
2021/12/12 00:25:09;;;;;;;11.55;4.55;;;;;;;12.56;87.25;98278.03;5093706;28;20134;-40
2021/12/12 00:27:34;;;;;;;9.70;4.38;;;;;;;12.33;88.00;98249.78;5093323;28;20577;-42
2021/12/12 00:30:03;;;;;;;14.27;4.82;;;;;;;12.33;90.25;98271.13;5093660;28;20371;-40
2021/12/12 00:32:29;;;;;;;11.63;4.22;;;;;;;12.38;89.81;98257.84;5093256;28;20039;-41
2021/12/12 00:34:59;;;;;;;12.88;3.58;;;;;;;12.09;89.16;98274.06;5093001;28;20103;-40
2021/12/12 00:37:25;;;;;;;18.75;3.13;;;;;;;12.20;89.21;98282.97;5093074;28;20024;-40
2021/12/12 00:39:53;;;;;;;9.82;2.95;;;;;;;12.91;86.84;98290.91;5092977;28;20451;-40
2021/12/12 00:42:21;;;;;;;11.85;3.00;;;;;;;12.49;87.14;98288.91;5092862;28;20531;-40
2021/12/12 00:44:49;;;;;;;8.73;2.90;;;;;;;12.22;88.13;98334.22;5091904;28;20028;-40
2021/12/12 00:47:14;;;;;;;10.88;3.08;;;;;;;12.39;89.30;98350.16;5093005;28;20030;-40
2021/12/12 00:49:40;;;;;;;9.55;3.03;;;;;;;12.58;88.88;98358.63;5091662;28;20035;-40
2021/12/12 00:52:07;;;;;;;9.75;2.88;;;;;;;12.11;87.97;98370.63;5092544;28;20032;-40
2021/12/12 00:54:33;;;;;;;10.00;2.70;;;;;;;11.90;88.73;98376.75;5092689;28;20059;-40
2021/12/12 00:57:03;;;;;;;9.30;3.10;;;;;;;12.62;88.18;98390.97;5091691;28;20399;-40
2021/12/12 00:59:30;;;;;;;10.10;3.83;;;;;;;12.32;87.39;98389.56;5092761;28;20399;-40
2021/12/12 01:01:56;;;;;;;9.90;3.95;;;;;;;12.27;86.94;98370.81;5092689;28;20028;-40
2021/12/12 01:04:23;;;;;;;9.48;3.30;;;;;;;12.11;89.75;98402.63;5092681;28;20052;-40
2021/12/12 01:06:48;;;;;;;9.55;3.58;;;;;;;12.17;90.86;98413.38;5092547;28;20092;-39
2021/12/12 01:09:19;;;;;;;9.32;4.25;;;;;;;11.72;90.92;98386.56;5092522;28;20028;-39
2021/12/12 01:11:46;;;;;;;8.20;3.30;;;;;;;12.00;89.57;98384.88;5092628;28;20395;-39
2021/12/12 01:14:15;;;;;;;13.55;2.80;;;;;;;11.94;90.23;98356.53;5091919;28;20020;-39
2021/12/12 01:16:56;;;;;;;9.50;3.30;;;;;;;11.84;91.36;98385.66;5092178;28;20028;-39
2021/12/12 01:19:33;;;;;;;7.82;3.25;;;;;;;11.44;91.18;98384.00;5092077;28;20468;-39
2021/12/12 01:22:03;;;;;;;7.78;3.10;;;;;;;11.67;90.38;98410.50;5092258;28;20027;-38
2021/12/12 01:24:31;;;;;;;7.45;2.50;;;;;;;12.29;84.04;98428.19;5092524;28;20016;-39
2021/12/12 01:26:57;;;;;;;3.17;1.48;;;;;;;12.12;78.01;98419.41;5093106;28;20031;-40
2021/12/12 01:29:22;;;;;;;3.20;1.30;;;;;;;11.74;78.58;98421.78;5092630;28;20024;-39
2021/12/12 01:31:49;;;;;;;2.33;1.20;;;;;;;12.30;76.82;98423.69;5092723;28;20043;-39
2021/12/12 01:34:22;;;;;;;2.45;1.38;;;;;;;12.63;75.42;98408.59;5092319;28;20095;-40
2021/12/12 01:39:43;;;;;;;;;;;;;;;12.74;65.42;98421.00;5093026;28;20080;-39
2021/12/12 01:42:16;;;;;;;0.50;0.30;;;;;;;12.77;65.89;98425.84;5092278;28;19908;-40
2021/12/12 01:44:50;;;;;;;0.77;0.35;;;;;;;13.27;64.30;98423.97;5092557;28;20015;-40
2021/12/12 01:47:51;;;;;;;1.58;0.22;;;;;;;12.88;63.40;98429.44;5092414;28;20055;-39
2021/12/12 01:50:26;;;;;;;0.82;0.40;;;;;;;12.62;65.33;98439.84;5059333;28;20145;-40
2021/12/12 01:52:52;;;;;;;0.68;0.30;;;;;;;12.99;62.76;98441.03;5092287;28;20016;-40
2021/12/12 01:55:29;;;;;;;2.65;1.13;;;;;;;12.88;63.05;98432.91;5092195;28;20157;-39
2021/12/12 01:57:56;;;;;;;3.35;1.73;;;;;;;12.62;65.71;98425.66;5092068;28;20032;-39
2021/12/12 02:00:27;;;;;;;1.60;0.77;;;;;;;12.47;65.58;98421.75;5092033;28;20028;-40
2021/12/12 02:02:53;;;;;;;2.95;1.35;;;;;;;12.70;66.79;98435.91;5091757;28;20039;-39
2021/12/12 02:05:19;;;;;;;1.73;0.95;;;;;;;12.85;68.97;98446.78;5090704;28;20387;-40
2021/12/12 02:07:49;;;;;;;1.70;1.00;;;;;;;12.25;68.81;98451.06;5090505;28;20019;-40
2021/12/12 02:10:22;;;;;;;3.22;1.85;;;;;;;12.41;69.69;98456.63;5092014;28;20039;-40
2021/12/12 02:12:48;;;;;;;5.50;2.88;;;;;;;12.45;66.65;98463.91;5091587;28;20081;-40
2021/12/12 02:15:13;;;;;;;2.08;1.02;;;;;;;12.92;64.21;98465.25;5091883;28;20028;-40
2021/12/12 02:17:43;;;;;;;2.05;0.65;;;;;;;12.58;62.65;98465.38;5090508;28;20027;-51
2021/12/12 02:20:39;;;;;;;0.28;0.20;;;;;;;12.59;61.34;98447.53;5090635;28;20088;-51
2021/12/12 02:23:36;;;;;;;1.48;0.50;;;;;;;13.13;60.73;98449.47;5091778;28;20020;-52
2021/12/12 02:37:00;;;;;;;1.10;0.40;;;;;;;12.78;63.21;98446.16;5091149;28;20054;-50
2021/12/12 02:39:25;;;;;;;0.85;0.60;;;;;;;12.30;64.76;98440.47;5090949;28;20032;-50
2021/12/12 02:41:56;;;;;;;1.15;0.60;;;;;;;12.57;64.82;98441.63;5089105;28;20039;-52
2021/12/12 02:44:26;;;;;;;1.35;0.88;;;;;;;12.84;64.76;98441.69;5091094;28;20027;-50
2021/12/12 02:46:53;;;;;;;1.55;0.70;;;;;;;12.09;67.23;98447.41;5091179;28;20045;-52
2021/12/12 02:52:05;;;;;;;1.73;0.60;;;;;;;12.22;66.18;98446.25;5090212;28;20047;-49
2021/12/12 02:54:30;;;;;;;1.60;0.88;;;;;;;12.48;66.18;98452.72;5091056;28;20020;-49
2021/12/12 02:56:56;;;;;;;1.55;1.05;;;;;;;12.01;67.52;98463.00;5089509;28;20077;-49
2021/12/12 02:59:22;;;;;;;1.08;0.88;;;;;;;11.35;71.31;98466.97;5089851;28;20036;-51
2021/12/12 03:01:57;;;;;;;1.67;1.20;;;;;;;11.33;72.60;98468.25;5090660;28;20463;-49
2021/12/12 03:04:23;;;;;;;2.47;1.58;;;;;;;11.98;69.72;98479.50;5090951;28;20579;-50
2021/12/12 03:06:49;;;;;;;2.50;1.40;;;;;;;11.69;70.59;98488.34;5091297;28;20028;-49
2021/12/12 03:09:19;;;;;;;4.93;1.42;;;;;;;11.76;70.24;98490.03;5091431;28;20024;-50
2021/12/12 03:11:46;;;;;;;2.97;1.55;;;;;;;11.22;72.29;98493.88;5091108;28;20020;-49
2021/12/12 03:14:11;;;;;;;3.45;2.13;;;;;;;10.99;73.82;98491.31;5090918;28;20016;-51
2021/12/12 03:16:37;;;;;;;5.18;1.77;;;;;;;11.22;73.34;98496.56;5090834;28;20031;-49
2021/12/12 03:19:03;;;;;;;4.43;3.25;;;;;;;11.04;74.34;98500.22;5091180;28;20028;-49
2021/12/12 03:21:32;;;;;;;4.35;2.35;;;;;;;11.14;74.72;98508.41;5090474;28;20057;-49
2021/12/12 03:24:09;;;;;;;6.97;2.85;;;;;;;10.81;76.98;98509.06;5090309;28;20016;-51
2021/12/12 03:26:34;;;;;;;6.22;2.28;;;;;;;10.74;79.80;98516.38;5090597;28;20107;-49
2021/12/12 03:29:00;;;;;;;5.03;2.28;;;;;;;10.74;81.13;98514.53;5090720;28;20444;-50
2021/12/12 03:31:31;;;;;;;3.78;2.00;;;;;;;10.73;82.12;98517.41;5090854;28;20028;-51
2021/12/12 03:33:57;;;;;;;4.88;2.22;;;;;;;10.75;81.90;98516.13;5089215;28;20062;-50
2021/12/12 03:36:22;;;;;;;6.95;3.03;;;;;;;10.89;81.46;98521.19;5090872;28;20474;-51
2021/12/12 03:38:51;;;;;;;4.95;2.55;;;;;;;10.89;80.48;98514.03;5090774;28;20077;-50
2021/12/12 03:41:19;;;;;;;6.77;2.87;;;;;;;10.82;80.92;98541.81;5089482;28;20027;-49
2021/12/12 03:43:45;;;;;;;4.93;2.47;;;;;;;10.93;80.36;98549.78;5090698;28;20284;-49
2021/12/12 03:46:10;;;;;;;5.13;2.75;;;;;;;10.71;80.56;98546.09;5089022;28;20024;-48
2021/12/12 03:48:37;;;;;;;6.35;2.70;;;;;;;10.79;81.15;98547.59;5090662;28;20028;-49
2021/12/12 03:51:03;;;;;;;5.30;2.60;;;;;;;10.83;80.60;98554.88;5090267;28;20020;-49
2021/12/12 03:53:29;;;;;;;7.82;3.20;;;;;;;10.30;82.53;98550.47;5091851;28;20059;-48
2021/12/12 03:55:55;;;;;;;7.53;3.38;;;;;;;10.26;83.88;98550.16;5093926;28;20052;-48
2021/12/12 03:58:21;;;;;;;5.63;2.88;;;;;;;10.32;84.19;98559.88;5094306;28;20025;-49
2021/12/12 04:00:50;;;;;;;8.95;3.35;;;;;;;10.55;84.11;98575.03;5094113;28;20487;-49
2021/12/12 04:03:16;;;;;;;7.95;3.40;;;;;;;10.44;83.40;98585.69;5093794;28;20032;-50
2021/12/12 04:05:53;;;;;;;5.80;3.03;;;;;;;10.21;83.81;98581.91;5094379;28;20037;-50
2021/12/12 04:08:18;;;;;;;12.15;3.47;;;;;;;10.18;84.64;98577.88;5094501;28;20016;-51
2021/12/12 04:10:44;;;;;;;5.28;3.50;;;;;;;10.30;83.16;98561.97;5092834;28;20039;-51
2021/12/12 04:13:09;;;;;;;4.95;3.30;;;;;;;10.30;83.72;98574.41;5094150;28;20024;-50
2021/12/12 04:15:35;;;;;;;6.20;3.00;;;;;;;10.31;83.37;98581.38;5094363;28;20024;-49
2021/12/12 04:18:00;;;;;;;7.30;3.53;;;;;;;10.21;84.07;98579.25;5094008;28;20459;-49
2021/12/12 04:20:29;;;;;;;5.20;3.30;;;;;;;10.03;84.78;98582.78;5094116;28;20034;-50
2021/12/12 04:22:55;;;;;;;8.10;4.70;;;;;;;9.87;84.70;98586.94;5093907;28;20490;-50
2021/12/12 04:25:21;;;;;;;9.48;5.07;;;;;;;9.79;85.90;98598.69;5093735;28;20041;-50
2021/12/12 04:27:46;;;;;;;11.15;5.10;;;;;;;9.89;85.94;98607.97;5093867;28;20016;-50
2021/12/12 04:30:12;;;;;;;12.45;5.47;;;;;;;9.81;86.45;98605.63;5093549;28;20387;-50
2021/12/12 04:32:38;;;;;;;9.40;5.07;;;;;;;9.97;85.76;98597.00;5092212;28;20063;-50
2021/12/12 04:35:14;;;;;;;12.77;5.60;;;;;;;9.79;86.16;98598.69;5093888;28;20024;-50
2021/12/12 04:37:40;;;;;;;10.82;5.30;;;;;;;9.69;86.58;98589.63;5093558;28;20024;-49
2021/12/12 04:40:08;;;;;;;9.90;5.38;;;;;;;9.96;85.96;98585.56;5093725;28;20161;-51
2021/12/12 04:42:36;;;;;;;11.77;5.28;;;;;;;9.81;87.39;98600.31;5093404;28;20036;-49
2021/12/12 04:45:16;;;;;;;10.38;5.43;;;;;;;9.53;88.11;98604.34;5093824;28;20035;-50
2021/12/12 04:50:45;;;;;;;9.00;5.00;;;;;;;9.63;88.33;98614.44;5092371;28;20077;-49
2021/12/12 04:53:23;;;;;;;10.35;5.25;;;;;;;9.42;87.77;98627.16;5092109;28;20070;-50
2021/12/12 04:55:51;;;;;;;13.80;6.10;;;;;;;9.41;87.93;98652.09;5093000;28;20040;-50
2021/12/12 04:58:20;;;;;;;13.32;6.50;;;;;;;9.32;88.64;98664.06;5093472;28;20024;-50
2021/12/12 05:00:48;;;;;;;11.65;5.97;;;;;;;9.28;88.66;98671.66;5093319;28;20024;-49
2021/12/12 05:03:16;;;;;;;13.68;7.05;;;;;;;9.28;88.44;98676.16;5093369;28;20113;-48
2021/12/12 05:05:47;;;;;;;10.60;6.10;;;;;;;9.26;87.64;98671.06;5092800;28;20709;-51
2021/12/12 05:08:34;;;;;;;11.55;5.68;;;;;;;9.30;87.42;98676.75;5091934;28;20028;-49
2021/12/12 05:11:05;;;;;;;8.18;5.45;;;;;;;9.29;86.41;98683.91;5093386;28;20689;-50
2021/12/12 05:13:37;;;;;;;10.07;5.63;;;;;;;9.20;87.65;98679.91;5091935;28;20024;-49
2021/12/12 05:16:21;;;;;;;12.63;5.90;;;;;;;9.16;87.83;98682.19;5091514;28;20027;-49
2021/12/12 05:18:51;;;;;;;9.43;5.70;;;;;;;9.21;87.17;98694.78;5075590;28;20105;-49
2021/12/12 05:21:28;;;;;;;10.85;6.10;;;;;;;9.06;88.16;98692.47;5091312;28;20024;-50
2021/12/12 05:23:57;;;;;;;9.60;5.40;;;;;;;9.04;87.52;98685.78;5091270;28;20081;-49
2021/12/12 05:26:32;;;;;;;7.10;4.63;;;;;;;8.75;87.71;98691.53;5092786;28;20020;-49
2021/12/12 05:29:07;;;;;;;8.23;5.28;;;;;;;8.64;89.05;98705.50;5091916;28;20153;-51
2021/12/12 05:31:33;;;;;;;18.02;9.15;;;;;;;8.76;88.53;98716.25;5074838;28;20081;-49
2021/12/12 05:33:58;;;;;;;15.23;9.60;;;;;;;9.05;89.86;98714.75;5092103;28;20032;-51
2021/12/12 05:36:24;;;;;;;13.45;8.35;;;;;;;9.48;87.66;98699.81;5091193;28;20103;-51
2021/12/12 05:38:49;;;;;;;10.35;6.57;;;;;;;9.74;84.37;98693.38;5074565;28;20379;-48
2021/12/12 05:41:18;;;;;;;7.47;5.35;;;;;;;9.25;85.38;98703.13;5074339;28;20619;-49
2021/12/12 05:43:45;;;;;;;10.43;6.40;;;;;;;8.99;86.13;98727.06;5091054;28;20024;-48
2021/12/12 05:46:13;;;;;;;12.73;7.25;;;;;;;9.23;87.51;98732.53;5092404;28;20016;-51
2021/12/12 05:48:39;;;;;;;9.35;5.93;;;;;;;9.46;86.73;98720.47;5058000;28;20016;-50
2021/12/12 05:51:04;;;;;;;8.80;5.20;;;;;;;9.15;87.36;98728.34;5091028;28;20020;-49
2021/12/12 05:53:30;;;;;;;8.70;5.25;;;;;;;8.95;87.13;98727.72;5074064;28;20092;-50
2021/12/12 05:55:55;;;;;;;5.20;3.65;;;;;;;9.18;87.35;98751.00;5090724;28;20094;-50
2021/12/12 05:58:21;;;;;;;59.70;33.03;;;;;;;9.13;87.17;98753.47;5074130;28;20024;-50
2021/12/12 06:00:52;;;;;;;48.40;26.92;;;;;;;9.44;87.30;98749.09;5091777;28;20430;-51
2021/12/12 06:03:21;;;;;;;34.50;17.95;;;;;;;9.85;84.79;98756.41;5091665;28;20709;-49
2021/12/12 06:05:46;;;;;;;61.20;31.75;;;;;;;9.29;85.49;98770.69;5091917;28;20081;-48
2021/12/12 06:08:12;;;;;;;35.90;22.95;;;;;;;8.96;86.25;98775.25;5073708;28;20110;-50
2021/12/12 06:10:38;;;;;;;15.38;10.15;;;;;;;9.11;85.60;98774.94;5091886;28;20033;-50
2021/12/12 06:13:04;;;;;;;13.13;7.85;;;;;;;9.19;85.21;98776.50;5091935;28;20465;-50
2021/12/12 06:15:30;;;;;;;10.60;7.07;;;;;;;9.64;85.76;98792.19;5090032;28;20103;-50
2021/12/12 06:17:56;;;;;;;9.43;6.45;;;;;;;9.65;86.18;98801.78;5073575;28;20028;-49
2021/12/12 06:20:21;;;;;;;10.18;6.13;;;;;;;9.26;85.71;98803.81;5090568;28;20054;-50
2021/12/12 06:22:47;;;;;;;12.05;7.43;;;;;;;9.32;85.31;98799.47;5091825;28;20016;-40
2021/12/12 06:25:13;;;;;;;9.88;5.97;;;;;;;10.09;91.40;98807.84;5091895;28;20383;-39
2021/12/12 06:27:38;;;;;;;8.27;5.35;;;;;;;10.43;81.78;98812.78;5091617;28;20399;-39
2021/12/12 06:30:07;;;;;;;28.25;16.02;;;;;;;10.49;82.50;98823.34;5092167;28;20040;-40
2021/12/12 06:32:32;;;;;;;45.27;25.70;;;;;;;10.53;82.74;98831.69;5091998;28;20016;-40
2021/12/12 06:34:58;;;;;;;11.40;5.53;;;;;;;10.54;82.23;98826.13;5090377;28;20399;-40
2021/12/12 06:37:23;;;;;;;6.35;3.90;;;;;;;10.52;81.11;98830.84;5091545;28;20046;-39
2021/12/12 06:39:49;;;;;;;6.97;4.10;;;;;;;10.77;80.96;98832.56;5091448;28;20035;-39
2021/12/12 06:42:14;;;;;;;8.27;4.80;;;;;;;10.78;79.56;98842.19;5091241;28;20012;-39
2021/12/12 06:44:40;;;;;;;8.25;4.88;;;;;;;10.68;82.30;98853.38;5090425;28;20035;-40
2021/12/12 06:47:09;;;;;;;13.10;6.30;;;;;;;10.75;82.28;98864.72;5090062;28;20020;-40
2021/12/12 06:49:35;;;;;;;8.77;5.82;;;;;;;10.81;82.46;98862.19;5090192;28;20020;-39
2021/12/12 06:52:01;;;;;;;11.35;5.90;;;;;;;10.81;80.76;98859.53;5088869;28;20089;-39
2021/12/12 06:54:28;;;;;;;11.57;6.47;;;;;;;10.63;81.32;98861.22;5090447;28;20438;-40
2021/12/12 06:56:55;;;;;;;11.57;7.50;;;;;;;10.68;81.84;98871.16;5089110;28;20404;-39
2021/12/12 06:59:22;;;;;;;14.82;9.32;;;;;;;11.31;83.74;98875.19;5090550;28;20019;-40
2021/12/12 07:01:48;;;;;;;13.35;7.60;;;;;;;11.19;80.28;98864.50;5091000;28;20046;-40
2021/12/12 07:04:15;;;;;;;16.52;9.05;;;;;;;11.07;80.28;98867.13;5089368;28;20056;-40
2021/12/12 07:06:41;;;;;;;16.00;8.25;;;;;;;11.06;79.91;98867.38;5090801;28;20109;-40
2021/12/12 07:09:08;;;;;;;13.80;8.13;;;;;;;11.22;79.80;98869.38;5090471;28;20527;-40
2021/12/12 07:11:33;;;;;;;79.13;46.15;;;;;;;11.45;78.92;98876.59;5090374;28;20371;-38
2021/12/12 07:13:59;;;;;;;37.75;25.25;;;;;;;11.47;80.22;98876.38;5089256;28;20020;-39
2021/12/12 07:16:24;;;;;;;15.75;9.52;;;;;;;11.18;77.04;98876.22;5089689;28;20404;-39
2021/12/12 07:18:51;;;;;;;19.88;11.38;;;;;;;11.27;79.01;98882.84;5090346;28;20017;-39
2021/12/12 07:21:16;;;;;;;20.05;11.30;;;;;;;11.38;79.04;98885.72;5090477;28;20028;-39
2021/12/12 07:23:43;;;;;;;27.63;14.43;;;;;;;12.36;80.03;98870.88;5090768;28;20028;-40
2021/12/12 07:26:09;;;;;;;29.30;17.08;;;;;;;12.39;73.93;98873.06;5089148;28;20016;-40
2021/12/12 07:28:35;;;;;;;22.05;13.93;;;;;;;11.90;76.72;98878.72;5093499;28;20459;-40
2021/12/12 07:31:02;;;;;;;25.13;14.20;;;;;;;11.65;77.28;98884.25;5094131;28;20055;-39
2021/12/12 07:33:29;;;;;;;23.63;13.70;;;;;;;12.53;74.64;98892.28;5094569;28;20085;-39
2021/12/12 07:35:58;;;;;;;56.75;33.35;;;;;;;12.54;74.14;98898.44;5093922;28;20086;-39
2021/12/12 07:38:23;;;;;;;26.63;16.23;;;;;;;13.10;72.25;98897.63;5094267;28;20020;-43
2021/12/12 07:40:49;;;;;;;20.42;12.25;;;;;;;13.01;72.09;98912.41;5092977;28;20028;-39
2021/12/12 07:43:14;;;;;;;21.55;12.70;;;;;;;12.87;71.29;98911.06;5075895;28;20024;-40
2021/12/12 07:45:40;;;;;;;21.95;12.50;;;;;;;13.07;73.58;98926.69;5092865;28;20029;-39
2021/12/12 07:48:09;;;;;;;17.02;10.23;;;;;;;14.08;71.86;98928.59;5093567;28;20487;-39
2021/12/12 07:50:35;;;;;;;16.92;9.05;;;;;;;13.86;68.22;98920.53;5093290;28;20028;-40
2021/12/12 07:53:03;;;;;;;14.20;8.18;;;;;;;13.51;68.13;98921.56;5093664;28;20058;-38
2021/12/12 07:55:28;;;;;;;12.07;7.05;;;;;;;13.57;68.26;98928.63;5093294;28;20013;-38
2021/12/12 07:57:54;;;;;;;10.45;6.78;;;;;;;14.11;66.54;98932.63;5092066;28;20035;-39
2021/12/12 08:00:22;;;;;;;11.88;6.38;;;;;;;13.54;67.42;98942.50;5092304;28;20024;-39
2021/12/12 08:02:48;;;;;;;12.43;7.57;;;;;;;13.67;66.69;98947.50;5093659;28;20426;-39
2021/12/12 08:05:15;;;;;;;13.00;7.05;;;;;;;14.77;63.50;98946.09;5093108;28;20048;-39
2021/12/12 08:07:42;;;;;;;12.32;6.63;;;;;;;14.55;62.71;98952.25;5087870;28;20025;-39
2021/12/12 08:10:08;;;;;;;12.88;6.40;;;;;;;14.04;64.03;98957.69;5087592;28;20111;-39
2021/12/12 08:12:34;;;;;;;9.85;5.20;;;;;;;13.86;65.11;98953.44;5086796;28;20533;-40
2021/12/12 08:15:03;;;;;;;10.15;5.20;;;;;;;14.62;62.51;98970.81;5087263;28;20020;-39
2021/12/12 08:17:29;;;;;;;9.20;5.05;;;;;;;14.50;61.89;98975.47;5088900;28;20451;-39
2021/12/12 08:19:56;;;;;;;11.27;6.05;;;;;;;13.98;64.43;98968.56;5092795;28;20024;-39
2021/12/12 08:22:23;;;;;;;16.80;7.60;;;;;;;14.32;63.28;98972.00;5090237;28;20020;-38
2021/12/12 08:24:48;;;;;;;14.00;6.63;;;;;;;14.68;61.00;98977.88;5091509;28;20017;-39
2021/12/12 08:27:14;;;;;;;14.95;8.18;;;;;;;14.34;62.15;98980.59;5073244;28;20033;-39
2021/12/12 08:29:39;;;;;;;17.10;9.52;;;;;;;14.06;63.71;98987.69;5092992;28;20028;-39
2021/12/12 08:32:06;;;;;;;16.95;9.77;;;;;;;14.89;62.32;98995.00;5091560;28;20016;-40
2021/12/12 08:34:32;;;;;;;9.70;5.57;;;;;;;14.95;60.75;98988.63;5093057;28;20040;-39
2021/12/12 08:36:58;;;;;;;10.30;4.50;;;;;;;14.66;61.29;98988.03;5091524;28;20027;-39
2021/12/12 08:39:25;;;;;;;9.32;4.45;;;;;;;15.29;62.27;98990.31;5092112;28;20058;-39
2021/12/12 08:41:53;;;;;;;10.23;5.40;;;;;;;15.15;60.59;98990.72;5092544;28;20395;-38
2021/12/12 08:44:18;;;;;;;8.02;3.40;;;;;;;14.45;61.56;98985.03;5092462;28;20025;-39
2021/12/12 08:46:47;;;;;;;6.07;2.88;;;;;;;13.82;64.15;98988.91;5092659;28;20012;-40
2021/12/12 08:49:13;;;;;;;5.47;2.65;;;;;;;14.82;61.81;99008.56;5092600;28;20378;-40
2021/12/12 08:52:00;;;;;;;5.75;2.72;;;;;;;14.59;61.25;98998.09;5092710;28;20476;-39
2021/12/12 08:54:27;;;;;;;4.10;2.28;;;;;;;14.04;63.44;99000.50;5092576;28;20067;-39
2021/12/12 08:57:03;;;;;;;3.88;2.08;;;;;;;14.18;63.12;99006.31;5092550;28;20028;-37
2021/12/12 08:59:30;;;;;;;12.77;6.43;;;;;;;14.10;62.67;99001.38;5092038;28;20034;-39
2021/12/12 09:01:58;;;;;;;6.45;2.40;;;;;;;13.44;63.22;99009.13;5092190;28;20475;-39
2021/12/12 09:04:26;;;;;;;8.93;2.57;;;;;;;13.40;64.52;99007.97;5091804;28;20048;-39
2021/12/12 09:07:09;;;;;;;3.97;2.15;;;;;;;14.57;61.83;99011.72;5074463;28;20059;-39
2021/12/12 09:09:41;;;;;;;5.90;2.20;;;;;;;13.80;63.94;99017.75;5090465;28;20032;-39
2021/12/12 09:12:37;;;;;;;5.13;2.28;;;;;;;13.01;65.45;99007.75;5090577;28;20080;-39
2021/12/12 09:15:33;;;;;;;4.88;2.20;;;;;;;13.35;65.83;99011.38;5090973;28;20040;-38
2021/12/12 09:18:03;;;;;;;6.00;2.50;;;;;;;13.49;64.68;98995.84;5092016;28;20103;-40
2021/12/12 09:20:34;;;;;;;5.78;2.30;;;;;;;13.12;65.11;99009.59;5091157;28;20379;-39
2021/12/12 09:23:06;;;;;;;5.90;2.35;;;;;;;12.50;68.64;99018.97;5090707;28;20103;-42
2021/12/12 09:25:57;;;;;;;7.45;2.20;;;;;;;13.52;65.99;99024.78;5091881;28;20029;-40
2021/12/12 09:28:45;;;;;;;8.87;2.23;;;;;;;13.56;64.94;99027.78;5086206;28;20039;-39
2021/12/12 09:31:15;;;;;;;5.95;2.05;;;;;;;12.98;67.04;99029.59;5086337;28;20051;-51
2021/12/12 09:33:50;;;;;;;5.47;2.10;;;;;;;12.78;67.35;99025.47;5084049;28;20464;-51
2021/12/12 09:36:29;;;;;;;4.28;1.80;;;;;;;13.95;64.05;99028.69;5073619;28;20119;-49
2021/12/12 09:38:59;;;;;;;24.17;13.27;;;;;;;13.28;66.50;99024.84;5091154;28;20040;-47
2021/12/12 09:42:02;;;;;;;16.90;8.38;;;;;;;12.96;66.93;99019.13;5090112;28;20028;-48
2021/12/12 09:44:43;;;;;;;5.25;2.47;;;;;;;13.10;67.90;99027.72;5091088;28;20373;-51
2021/12/12 09:47:56;;;;;;;3.55;2.10;;;;;;;13.81;65.60;99032.75;5077219;28;20039;-48
2021/12/12 09:54:13;;;;;;;8.88;3.22;;;;;;;13.15;69.46;99041.16;5048012;28;20111;-50
2021/12/12 09:56:56;;;;;;;7.13;3.35;;;;;;;14.30;66.19;99035.69;5071058;28;20109;-50
2021/12/12 09:59:46;;;;;;;5.90;2.38;;;;;;;13.77;65.30;99029.75;5087283;28;20028;-49
2021/12/12 10:02:12;;;;;;;4.13;2.17;;;;;;;13.69;66.71;99043.53;5090140;28;20030;-50
2021/12/12 10:04:56;;;;;;;4.82;2.38;;;;;;;14.32;64.89;99040.75;5090972;28;20188;-49
2021/12/12 10:07:58;;;;;;;4.65;2.60;;;;;;;13.85;65.68;99044.59;5091292;28;20065;-47
2021/12/12 10:10:35;;;;;;;5.88;2.70;;;;;;;13.23;67.85;99043.47;5090866;28;20097;-50
2021/12/12 10:13:25;;;;;;;8.15;3.13;;;;;;;13.57;67.48;99040.88;5087212;28;20448;-50
2021/12/12 10:15:57;;;;;;;9.95;3.90;;;;;;;13.94;65.33;99035.13;5070613;28;20057;-48
2021/12/12 10:18:45;;;;;;;8.00;3.88;;;;;;;13.60;67.01;99043.09;5070596;28;20326;-48
2021/12/12 10:21:33;;;;;;;8.38;4.43;;;;;;;13.46;67.74;99052.44;5070124;28;20036;-51
2021/12/12 10:24:12;;;;;;;10.30;4.32;;;;;;;14.26;64.37;99046.06;5069331;28;20104;-55
2021/12/12 10:26:40;;;;;;;11.65;5.35;;;;;;;13.74;65.37;99046.28;5085334;28;20024;-53
2021/12/12 10:29:10;;;;;;;13.15;6.05;;;;;;;13.41;66.02;99039.81;5089924;28;20030;-51
2021/12/12 10:31:42;;;;;;;10.90;6.43;;;;;;;13.82;66.07;99042.38;5090319;28;20032;-49
2021/12/12 10:34:36;;;;;;;17.48;7.20;;;;;;;14.11;65.46;99045.81;5088633;28;20031;-49
2021/12/12 10:37:06;;;;;;;72.88;40.58;;;;;;;13.52;67.07;99046.16;5089051;28;20039;-48
2021/12/12 10:39:33;;;;;;;29.73;14.38;;;;;;;13.38;68.41;99042.94;5072181;28;20047;-51
2021/12/12 10:42:00;;;;;;;12.93;7.30;;;;;;;14.05;66.05;99038.75;5090133;28;20020;-49
2021/12/12 10:44:30;;;;;;;16.90;7.60;;;;;;;13.57;66.59;99040.09;5090009;28;20039;-50
2021/12/12 10:47:33;;;;;;;14.25;6.97;;;;;;;13.56;66.81;99049.97;5089864;28;20023;-47
2021/12/12 10:50:15;;;;;;;16.13;7.38;;;;;;;13.82;66.82;99043.22;5089785;28;20031;-49
2021/12/12 10:52:50;;;;;;;14.57;8.02;;;;;;;13.78;67.26;99039.38;5088822;28;20024;-50
2021/12/12 10:55:17;;;;;;;15.30;8.35;;;;;;;13.56;68.27;99039.28;5087520;28;20097;-50
2021/12/12 10:57:43;;;;;;;12.02;8.30;;;;;;;13.49;71.90;99034.06;5089461;28;20098;-49
2021/12/12 11:00:22;;;;;;;12.95;7.70;;;;;;;14.67;67.28;99040.50;5071624;28;20464;-47
2021/12/12 11:03:09;;;;;;;10.43;6.38;;;;;;;14.17;66.09;99052.88;5089102;28;20149;-49
2021/12/12 11:05:46;;;;;;;11.23;6.88;;;;;;;13.52;67.75;99048.84;5087888;28;20048;-52
2021/12/12 11:08:22;;;;;;;16.98;7.40;;;;;;;13.68;68.02;99057.94;5072434;28;20032;-50
2021/12/12 11:10:48;;;;;;;13.05;7.00;;;;;;;13.87;67.10;99045.97;5087082;28;20028;-49
2021/12/12 11:13:32;;;;;;;9.77;6.70;;;;;;;13.44;68.59;99038.50;5071565;28;20016;-50
2021/12/12 11:16:15;;;;;;;13.05;7.22;;;;;;;14.34;66.78;99044.84;5088352;28;20556;-48
2021/12/12 11:18:49;;;;;;;14.63;7.47;;;;;;;13.86;67.01;99049.72;5088500;28;20024;-48
2021/12/12 11:21:24;;;;;;;13.00;7.60;;;;;;;13.32;68.71;99057.28;5071787;28;20020;-51
2021/12/12 11:24:03;;;;;;;12.82;7.82;;;;;;;13.45;68.28;99058.84;5073649;28;20131;-50
2021/12/12 11:26:43;;;;;;;12.85;7.90;;;;;;;13.17;69.21;99063.09;5089995;28;20396;-51
2021/12/12 11:29:12;;;;;;;12.50;7.57;;;;;;;13.25;68.86;99059.22;5088827;28;20027;-47
2021/12/12 11:31:42;;;;;;;;;;;;;;;13.09;69.69;99060.78;5089628;28;20032;-51
2021/12/12 11:34:08;;;;;;;8.05;5.32;;;;;;;12.90;69.63;99074.31;5088047;28;19908;-51
2021/12/12 11:37:12;;;;;;;10.05;5.20;;;;;;;12.73;69.83;99064.59;5087822;28;20024;-50
2021/12/12 11:39:43;;;;;;;11.00;6.00;;;;;;;12.68;70.18;99066.09;5087216;28;20495;-47
2021/12/12 11:42:33;;;;;;;10.23;6.03;;;;;;;12.84;70.15;99059.22;5068354;28;20078;-52
2021/12/12 11:45:32;;;;;;;10.65;6.47;;;;;;;12.68;70.29;99066.09;5068030;28;20378;-47
2021/12/12 11:48:33;;;;;;;9.02;5.90;;;;;;;13.12;68.73;99057.66;5067765;28;20115;-49
2021/12/12 11:51:06;;;;;;;12.57;6.75;;;;;;;13.21;68.22;99064.25;5077772;28;20101;-48
2021/12/12 11:54:02;;;;;;;13.20;7.07;;;;;;;13.17;69.02;99064.97;5051554;28;20024;-51
2021/12/12 11:56:31;;;;;;;12.93;7.32;;;;;;;13.23;69.57;99059.50;5070005;28;20043;-47
2021/12/12 11:59:10;;;;;;;10.98;7.20;;;;;;;13.03;71.25;99051.06;5068078;28;20048;-49
2021/12/12 12:01:47;;;;;;;11.63;7.28;;;;;;;13.01;70.69;99048.63;5067557;28;20036;-48
2021/12/12 12:04:31;;;;;;;13.85;7.38;;;;;;;13.17;70.71;99047.06;5069046;28;20090;-51
2021/12/12 12:07:05;;;;;;;11.57;7.50;;;;;;;13.23;71.21;99047.97;5068437;28;20032;-50
2021/12/12 12:09:36;;;;;;;12.80;7.38;;;;;;;12.96;72.20;99053.84;5068600;28;20405;-51
2021/12/12 12:12:05;;;;;;;13.73;8.10;;;;;;;13.13;71.99;99053.13;5079386;28;20055;-49